sensor_id;sensor_type;location;lat;lon;timestamp;P1;durP1;ratioP1;P2;durP2;ratioP2
69703;SDS011;56967;43.538;-5.646;2022-10-22T00:02:21;12.00;;;4.78;;
69703;SDS011;56967;43.538;-5.646;2022-10-22T00:04:48;10.85;;;4.57;;
69703;SDS011;56967;43.538;-5.646;2022-10-22T00:07:14;11.85;;;4.57;;
69703;SDS011;56967;43.538;-5.646;2022-10-22T00:09:41;11.93;;;4.57;;
69703;SDS011;56967;43.538;-5.646;2022-10-22T00:12:07;8.45;;;4.15;;
69703;SDS011;56967;43.538;-5.646;2022-10-22T00:14:33;9.30;;;4.38;;
69703;SDS011;56967;43.538;-5.646;2022-10-22T00:16:58;11.20;;;4.93;;
69703;SDS011;56967;43.538;-5.646;2022-10-22T00:19:25;11.13;;;4.25;;
69703;SDS011;56967;43.538;-5.646;2022-10-22T00:21:51;10.00;;;4.28;;
69703;SDS011;56967;43.538;-5.646;2022-10-22T00:24:17;11.75;;;4.40;;
69703;SDS011;56967;43.538;-5.646;2022-10-22T00:26:43;12.48;;;4.80;;
69703;SDS011;56967;43.538;-5.646;2022-10-22T00:29:08;10.98;;;5.07;;
69703;SDS011;56967;43.538;-5.646;2022-10-22T00:31:34;10.18;;;5.13;;
69703;SDS011;56967;43.538;-5.646;2022-10-22T00:33:59;11.25;;;5.00;;
69703;SDS011;56967;43.538;-5.646;2022-10-22T00:36:25;11.32;;;5.03;;
69703;SDS011;56967;43.538;-5.646;2022-10-22T00:38:51;10.90;;;4.38;;
69703;SDS011;56967;43.538;-5.646;2022-10-22T00:41:16;10.48;;;4.72;;
69703;SDS011;56967;43.538;-5.646;2022-10-22T00:43:58;11.48;;;4.82;;
69703;SDS011;56967;43.538;-5.646;2022-10-22T00:46:26;14.15;;;6.00;;
69703;SDS011;56967;43.538;-5.646;2022-10-22T00:48:52;9.65;;;4.57;;
69703;SDS011;56967;43.538;-5.646;2022-10-22T00:51:20;12.70;;;5.00;;
69703;SDS011;56967;43.538;-5.646;2022-10-22T00:53:51;11.38;;;4.78;;
69703;SDS011;56967;43.538;-5.646;2022-10-22T00:56:20;12.55;;;4.88;;
69703;SDS011;56967;43.538;-5.646;2022-10-22T00:58:48;12.10;;;4.60;;
69703;SDS011;56967;43.538;-5.646;2022-10-22T01:01:17;9.68;;;4.32;;
69703;SDS011;56967;43.538;-5.646;2022-10-22T01:03:47;9.57;;;4.25;;
69703;SDS011;56967;43.538;-5.646;2022-10-22T01:06:14;9.40;;;3.95;;
69703;SDS011;56967;43.538;-5.646;2022-10-22T01:11:40;11.82;;;4.22;;
69703;SDS011;56967;43.538;-5.646;2022-10-22T01:16:53;11.32;;;4.25;;
69703;SDS011;56967;43.538;-5.646;2022-10-22T01:19:30;64.22;;;11.77;;
69703;SDS011;56967;43.538;-5.646;2022-10-22T01:22:11;19.63;;;6.05;;
69703;SDS011;56967;43.538;-5.646;2022-10-22T01:30:11;12.85;;;4.38;;
69703;SDS011;56967;43.538;-5.646;2022-10-22T01:32:43;8.60;;;4.10;;
69703;SDS011;56967;43.538;-5.646;2022-10-22T01:35:13;10.98;;;4.13;;
69703;SDS011;56967;43.538;-5.646;2022-10-22T01:37:47;8.18;;;3.67;;
69703;SDS011;56967;43.538;-5.646;2022-10-22T01:40:17;7.95;;;3.67;;
69703;SDS011;56967;43.538;-5.646;2022-10-22T01:45:43;8.02;;;3.50;;
69703;SDS011;56967;43.538;-5.646;2022-10-22T01:54:13;12.57;;;3.80;;
69703;SDS011;56967;43.538;-5.646;2022-10-22T01:56:26;6.85;;;3.33;;
69703;SDS011;56967;43.538;-5.646;2022-10-22T01:59:16;7.47;;;3.17;;
69703;SDS011;56967;43.538;-5.646;2022-10-22T02:04:30;10.57;;;3.50;;
69703;SDS011;56967;43.538;-5.646;2022-10-22T02:07:00;9.00;;;3.60;;
69703;SDS011;56967;43.538;-5.646;2022-10-22T02:09:28;7.68;;;3.42;;
69703;SDS011;56967;43.538;-5.646;2022-10-22T02:11:55;5.88;;;2.90;;
69703;SDS011;56967;43.538;-5.646;2022-10-22T02:14:23;7.90;;;3.30;;
69703;SDS011;56967;43.538;-5.646;2022-10-22T02:16:51;7.35;;;2.75;;
69703;SDS011;56967;43.538;-5.646;2022-10-22T02:19:24;8.00;;;3.08;;
69703;SDS011;56967;43.538;-5.646;2022-10-22T02:21:51;7.15;;;3.05;;
69703;SDS011;56967;43.538;-5.646;2022-10-22T02:24:18;4.90;;;2.40;;
69703;SDS011;56967;43.538;-5.646;2022-10-22T02:26:47;6.20;;;3.13;;
69703;SDS011;56967;43.538;-5.646;2022-10-22T02:29:25;8.45;;;3.10;;
69703;SDS011;56967;43.538;-5.646;2022-10-22T02:31:54;7.13;;;2.97;;
69703;SDS011;56967;43.538;-5.646;2022-10-22T02:34:22;5.35;;;2.40;;
69703;SDS011;56967;43.538;-5.646;2022-10-22T02:36:52;6.15;;;2.40;;
69703;SDS011;56967;43.538;-5.646;2022-10-22T02:39:19;4.55;;;2.08;;
69703;SDS011;56967;43.538;-5.646;2022-10-22T02:41:46;7.18;;;3.30;;
69703;SDS011;56967;43.538;-5.646;2022-10-22T02:44:12;5.97;;;3.03;;
69703;SDS011;56967;43.538;-5.646;2022-10-22T02:46:38;7.32;;;3.63;;
69703;SDS011;56967;43.538;-5.646;2022-10-22T02:49:04;7.10;;;3.40;;
69703;SDS011;56967;43.538;-5.646;2022-10-22T02:51:30;7.72;;;3.17;;
69703;SDS011;56967;43.538;-5.646;2022-10-22T02:53:55;5.82;;;2.92;;
69703;SDS011;56967;43.538;-5.646;2022-10-22T02:56:21;8.52;;;3.50;;
69703;SDS011;56967;43.538;-5.646;2022-10-22T02:58:47;5.30;;;2.90;;
69703;SDS011;56967;43.538;-5.646;2022-10-22T03:01:12;9.40;;;3.58;;
69703;SDS011;56967;43.538;-5.646;2022-10-22T03:03:38;6.13;;;3.20;;
69703;SDS011;56967;43.538;-5.646;2022-10-22T03:06:03;5.82;;;2.97;;
69703;SDS011;56967;43.538;-5.646;2022-10-22T03:08:29;7.80;;;3.50;;
69703;SDS011;56967;43.538;-5.646;2022-10-22T03:10:54;6.70;;;3.20;;
69703;SDS011;56967;43.538;-5.646;2022-10-22T03:13:20;8.52;;;3.90;;
69703;SDS011;56967;43.538;-5.646;2022-10-22T03:15:47;6.38;;;3.38;;
69703;SDS011;56967;43.538;-5.646;2022-10-22T03:18:13;6.82;;;3.75;;
69703;SDS011;56967;43.538;-5.646;2022-10-22T03:20:39;11.02;;;4.28;;
69703;SDS011;56967;43.538;-5.646;2022-10-22T03:23:05;7.97;;;3.70;;
69703;SDS011;56967;43.538;-5.646;2022-10-22T03:25:30;6.10;;;3.03;;
69703;SDS011;56967;43.538;-5.646;2022-10-22T03:28:00;8.50;;;3.50;;
69703;SDS011;56967;43.538;-5.646;2022-10-22T03:30:28;6.05;;;3.25;;
69703;SDS011;56967;43.538;-5.646;2022-10-22T03:32:53;8.10;;;3.72;;
69703;SDS011;56967;43.538;-5.646;2022-10-22T03:35:19;7.25;;;3.53;;
69703;SDS011;56967;43.538;-5.646;2022-10-22T03:37:44;10.50;;;3.58;;
69703;SDS011;56967;43.538;-5.646;2022-10-22T03:40:10;8.32;;;3.55;;
69703;SDS011;56967;43.538;-5.646;2022-10-22T03:42:36;10.35;;;3.58;;
69703;SDS011;56967;43.538;-5.646;2022-10-22T03:45:03;6.95;;;2.40;;
69703;SDS011;56967;43.538;-5.646;2022-10-22T03:47:29;8.68;;;3.78;;
69703;SDS011;56967;43.538;-5.646;2022-10-22T03:49:54;7.80;;;3.63;;
69703;SDS011;56967;43.538;-5.646;2022-10-22T03:52:20;9.45;;;4.25;;
69703;SDS011;56967;43.538;-5.646;2022-10-22T03:54:46;8.48;;;4.00;;
69703;SDS011;56967;43.538;-5.646;2022-10-22T03:57:11;5.10;;;2.80;;
69703;SDS011;56967;43.538;-5.646;2022-10-22T03:59:37;6.47;;;3.08;;
69703;SDS011;56967;43.538;-5.646;2022-10-22T04:02:04;7.93;;;3.30;;
69703;SDS011;56967;43.538;-5.646;2022-10-22T04:04:30;5.55;;;3.05;;
69703;SDS011;56967;43.538;-5.646;2022-10-22T04:06:56;5.35;;;2.40;;
69703;SDS011;56967;43.538;-5.646;2022-10-22T04:09:22;4.95;;;3.03;;
69703;SDS011;56967;43.538;-5.646;2022-10-22T04:11:47;6.18;;;2.70;;
69703;SDS011;56967;43.538;-5.646;2022-10-22T04:14:13;9.80;;;3.45;;
69703;SDS011;56967;43.538;-5.646;2022-10-22T04:16:39;6.18;;;2.83;;
69703;SDS011;56967;43.538;-5.646;2022-10-22T04:19:05;6.75;;;3.35;;
69703;SDS011;56967;43.538;-5.646;2022-10-22T04:21:31;8.02;;;3.47;;
69703;SDS011;56967;43.538;-5.646;2022-10-22T04:23:57;6.38;;;3.42;;
69703;SDS011;56967;43.538;-5.646;2022-10-22T04:26:22;5.40;;;3.05;;
69703;SDS011;56967;43.538;-5.646;2022-10-22T04:28:48;7.53;;;3.42;;
69703;SDS011;56967;43.538;-5.646;2022-10-22T04:31:16;4.15;;;2.00;;
69703;SDS011;56967;43.538;-5.646;2022-10-22T04:33:44;5.68;;;3.05;;
69703;SDS011;56967;43.538;-5.646;2022-10-22T04:36:11;1.88;;;1.10;;
69703;SDS011;56967;43.538;-5.646;2022-10-22T04:38:38;4.40;;;1.40;;
69703;SDS011;56967;43.538;-5.646;2022-10-22T04:41:14;2.72;;;0.95;;
69703;SDS011;56967;43.538;-5.646;2022-10-22T04:43:52;2.17;;;1.10;;
69703;SDS011;56967;43.538;-5.646;2022-10-22T04:46:18;2.40;;;1.20;;
69703;SDS011;56967;43.538;-5.646;2022-10-22T04:48:44;2.65;;;1.30;;
69703;SDS011;56967;43.538;-5.646;2022-10-22T04:51:11;2.65;;;1.40;;
69703;SDS011;56967;43.538;-5.646;2022-10-22T04:53:39;3.45;;;1.67;;
69703;SDS011;56967;43.538;-5.646;2022-10-22T04:58:34;5.13;;;2.45;;
69703;SDS011;56967;43.538;-5.646;2022-10-22T05:01:00;4.13;;;2.17;;
69703;SDS011;56967;43.538;-5.646;2022-10-22T05:03:32;3.50;;;1.80;;
69703;SDS011;56967;43.538;-5.646;2022-10-22T05:05:59;3.55;;;1.80;;
69703;SDS011;56967;43.538;-5.646;2022-10-22T05:08:25;4.88;;;1.70;;
69703;SDS011;56967;43.538;-5.646;2022-10-22T05:10:51;3.70;;;1.42;;
69703;SDS011;56967;43.538;-5.646;2022-10-22T05:13:16;4.55;;;1.75;;
69703;SDS011;56967;43.538;-5.646;2022-10-22T05:15:41;2.28;;;1.17;;
69703;SDS011;56967;43.538;-5.646;2022-10-22T05:18:07;3.40;;;1.30;;
69703;SDS011;56967;43.538;-5.646;2022-10-22T05:20:32;2.97;;;1.20;;
69703;SDS011;56967;43.538;-5.646;2022-10-22T05:22:58;1.70;;;1.10;;
69703;SDS011;56967;43.538;-5.646;2022-10-22T05:25:23;1.98;;;0.93;;
69703;SDS011;56967;43.538;-5.646;2022-10-22T05:27:49;3.53;;;1.10;;
69703;SDS011;56967;43.538;-5.646;2022-10-22T05:30:14;2.58;;;1.10;;
69703;SDS011;56967;43.538;-5.646;2022-10-22T05:32:40;3.53;;;1.20;;
69703;SDS011;56967;43.538;-5.646;2022-10-22T05:35:05;1.92;;;0.90;;
69703;SDS011;56967;43.538;-5.646;2022-10-22T05:37:31;3.75;;;1.15;;
69703;SDS011;56967;43.538;-5.646;2022-10-22T05:39:57;2.45;;;0.88;;
69703;SDS011;56967;43.538;-5.646;2022-10-22T05:42:22;3.60;;;1.00;;
69703;SDS011;56967;43.538;-5.646;2022-10-22T05:44:47;2.58;;;1.00;;
69703;SDS011;56967;43.538;-5.646;2022-10-22T05:47:13;2.90;;;0.90;;
69703;SDS011;56967;43.538;-5.646;2022-10-22T05:49:39;2.65;;;1.10;;
69703;SDS011;56967;43.538;-5.646;2022-10-22T05:52:04;2.95;;;1.17;;
69703;SDS011;56967;43.538;-5.646;2022-10-22T05:54:29;3.55;;;0.90;;
69703;SDS011;56967;43.538;-5.646;2022-10-22T05:56:55;2.67;;;1.08;;
69703;SDS011;56967;43.538;-5.646;2022-10-22T05:59:20;2.30;;;1.00;;
69703;SDS011;56967;43.538;-5.646;2022-10-22T06:01:46;2.65;;;0.90;;
69703;SDS011;56967;43.538;-5.646;2022-10-22T06:04:11;3.28;;;0.95;;
69703;SDS011;56967;43.538;-5.646;2022-10-22T06:06:44;2.95;;;0.80;;
69703;SDS011;56967;43.538;-5.646;2022-10-22T06:09:16;2.58;;;0.82;;
69703;SDS011;56967;43.538;-5.646;2022-10-22T06:11:44;1.75;;;0.63;;
69703;SDS011;56967;43.538;-5.646;2022-10-22T06:14:11;1.10;;;0.60;;
69703;SDS011;56967;43.538;-5.646;2022-10-22T06:16:37;2.90;;;1.02;;
69703;SDS011;56967;43.538;-5.646;2022-10-22T06:19:02;2.08;;;0.60;;
69703;SDS011;56967;43.538;-5.646;2022-10-22T06:21:28;1.17;;;0.52;;
69703;SDS011;56967;43.538;-5.646;2022-10-22T06:23:55;1.33;;;0.50;;
69703;SDS011;56967;43.538;-5.646;2022-10-22T06:26:21;1.25;;;0.50;;
69703;SDS011;56967;43.538;-5.646;2022-10-22T06:28:46;3.15;;;0.70;;
69703;SDS011;56967;43.538;-5.646;2022-10-22T06:31:12;2.00;;;0.50;;
69703;SDS011;56967;43.538;-5.646;2022-10-22T06:33:38;1.67;;;0.70;;
69703;SDS011;56967;43.538;-5.646;2022-10-22T06:36:14;3.88;;;0.90;;
69703;SDS011;56967;43.538;-5.646;2022-10-22T06:38:42;2.33;;;0.60;;
69703;SDS011;56967;43.538;-5.646;2022-10-22T06:41:09;2.22;;;0.70;;
69703;SDS011;56967;43.538;-5.646;2022-10-22T06:43:40;5.57;;;0.65;;
69703;SDS011;56967;43.538;-5.646;2022-10-22T06:46:10;1.58;;;0.60;;
69703;SDS011;56967;43.538;-5.646;2022-10-22T06:48:35;2.42;;;0.57;;
69703;SDS011;56967;43.538;-5.646;2022-10-22T06:51:02;1.40;;;0.63;;
69703;SDS011;56967;43.538;-5.646;2022-10-22T06:53:30;1.27;;;0.63;;
69703;SDS011;56967;43.538;-5.646;2022-10-22T06:55:56;2.30;;;0.70;;
69703;SDS011;56967;43.538;-5.646;2022-10-22T06:58:21;1.70;;;0.70;;
69703;SDS011;56967;43.538;-5.646;2022-10-22T07:00:47;1.88;;;0.82;;
69703;SDS011;56967;43.538;-5.646;2022-10-22T07:03:13;4.18;;;1.50;;
69703;SDS011;56967;43.538;-5.646;2022-10-22T07:05:40;2.88;;;1.25;;
69703;SDS011;56967;43.538;-5.646;2022-10-22T07:08:06;2.65;;;1.05;;
69703;SDS011;56967;43.538;-5.646;2022-10-22T07:10:32;1.73;;;0.90;;
69703;SDS011;56967;43.538;-5.646;2022-10-22T07:12:58;2.10;;;0.80;;
69703;SDS011;56967;43.538;-5.646;2022-10-22T07:15:24;2.03;;;0.80;;
69703;SDS011;56967;43.538;-5.646;2022-10-22T07:17:49;1.65;;;0.75;;
69703;SDS011;56967;43.538;-5.646;2022-10-22T07:20:16;3.17;;;1.17;;
69703;SDS011;56967;43.538;-5.646;2022-10-22T07:22:43;3.28;;;0.95;;
69703;SDS011;56967;43.538;-5.646;2022-10-22T07:25:09;1.45;;;0.70;;
69703;SDS011;56967;43.538;-5.646;2022-10-22T07:27:34;3.40;;;0.70;;
69703;SDS011;56967;43.538;-5.646;2022-10-22T07:30:00;0.80;;;0.50;;
69703;SDS011;56967;43.538;-5.646;2022-10-22T07:32:26;1.65;;;0.60;;
69703;SDS011;56967;43.538;-5.646;2022-10-22T07:34:51;1.50;;;0.60;;
69703;SDS011;56967;43.538;-5.646;2022-10-22T07:37:17;2.22;;;0.93;;
69703;SDS011;56967;43.538;-5.646;2022-10-22T07:39:46;1.65;;;0.90;;
69703;SDS011;56967;43.538;-5.646;2022-10-22T07:42:15;2.08;;;1.02;;
69703;SDS011;56967;43.538;-5.646;2022-10-22T07:44:40;2.17;;;1.00;;
69703;SDS011;56967;43.538;-5.646;2022-10-22T07:47:06;4.18;;;0.82;;
69703;SDS011;56967;43.538;-5.646;2022-10-22T07:49:31;0.60;;;0.55;;
69703;SDS011;56967;43.538;-5.646;2022-10-22T07:51:57;2.88;;;0.93;;
69703;SDS011;56967;43.538;-5.646;2022-10-22T07:54:22;1.98;;;1.10;;
69703;SDS011;56967;43.538;-5.646;2022-10-22T07:56:48;2.85;;;1.30;;
69703;SDS011;56967;43.538;-5.646;2022-10-22T07:59:14;2.33;;;1.17;;
69703;SDS011;56967;43.538;-5.646;2022-10-22T08:01:39;2.95;;;1.10;;
69703;SDS011;56967;43.538;-5.646;2022-10-22T08:04:05;1.77;;;0.98;;
69703;SDS011;56967;43.538;-5.646;2022-10-22T08:06:32;2.50;;;1.23;;
69703;SDS011;56967;43.538;-5.646;2022-10-22T08:08:58;2.80;;;1.48;;
69703;SDS011;56967;43.538;-5.646;2022-10-22T08:11:24;2.08;;;0.85;;
69703;SDS011;56967;43.538;-5.646;2022-10-22T08:13:52;2.13;;;1.00;;
69703;SDS011;56967;43.538;-5.646;2022-10-22T08:16:18;6.72;;;2.03;;
69703;SDS011;56967;43.538;-5.646;2022-10-22T08:18:44;3.45;;;1.90;;
69703;SDS011;56967;43.538;-5.646;2022-10-22T08:21:10;2.40;;;1.20;;
69703;SDS011;56967;43.538;-5.646;2022-10-22T08:23:37;1.92;;;0.95;;
69703;SDS011;56967;43.538;-5.646;2022-10-22T08:26:02;2.75;;;0.80;;
69703;SDS011;56967;43.538;-5.646;2022-10-22T08:28:28;4.32;;;1.23;;
69703;SDS011;56967;43.538;-5.646;2022-10-22T08:30:56;4.05;;;1.60;;
69703;SDS011;56967;43.538;-5.646;2022-10-22T08:33:22;6.32;;;1.67;;
69703;SDS011;56967;43.538;-5.646;2022-10-22T08:35:48;1.85;;;0.98;;
69703;SDS011;56967;43.538;-5.646;2022-10-22T08:38:15;4.72;;;2.35;;
69703;SDS011;56967;43.538;-5.646;2022-10-22T08:40:41;4.13;;;1.70;;
69703;SDS011;56967;43.538;-5.646;2022-10-22T08:43:28;3.25;;;1.63;;
69703;SDS011;56967;43.538;-5.646;2022-10-22T08:48:48;2.60;;;1.40;;
69703;SDS011;56967;43.538;-5.646;2022-10-22T08:51:18;4.13;;;1.60;;
69703;SDS011;56967;43.538;-5.646;2022-10-22T08:56:30;7.45;;;2.60;;
69703;SDS011;56967;43.538;-5.646;2022-10-22T08:59:00;4.85;;;2.42;;
69703;SDS011;56967;43.538;-5.646;2022-10-22T09:01:34;4.45;;;2.30;;
69703;SDS011;56967;43.538;-5.646;2022-10-22T09:04:10;6.13;;;2.75;;
69703;SDS011;56967;43.538;-5.646;2022-10-22T09:06:49;5.20;;;2.40;;
69703;SDS011;56967;43.538;-5.646;2022-10-22T09:09:16;4.57;;;1.80;;
69703;SDS011;56967;43.538;-5.646;2022-10-22T09:11:45;2.28;;;1.52;;
69703;SDS011;56967;43.538;-5.646;2022-10-22T09:14:17;2.63;;;1.40;;
69703;SDS011;56967;43.538;-5.646;2022-10-22T09:19:45;4.88;;;1.92;;
69703;SDS011;56967;43.538;-5.646;2022-10-22T09:25:12;2.90;;;1.30;;
69703;SDS011;56967;43.538;-5.646;2022-10-22T09:27:38;3.75;;;1.52;;
69703;SDS011;56967;43.538;-5.646;2022-10-22T09:30:11;3.90;;;1.30;;
69703;SDS011;56967;43.538;-5.646;2022-10-22T09:32:42;11.15;;;1.95;;
69703;SDS011;56967;43.538;-5.646;2022-10-22T09:35:09;4.28;;;1.60;;
69703;SDS011;56967;43.538;-5.646;2022-10-22T09:37:36;10.18;;;2.20;;
69703;SDS011;56967;43.538;-5.646;2022-10-22T09:40:12;5.38;;;1.70;;
69703;SDS011;56967;43.538;-5.646;2022-10-22T09:42:39;4.57;;;1.45;;
69703;SDS011;56967;43.538;-5.646;2022-10-22T09:45:05;2.78;;;1.40;;
69703;SDS011;56967;43.538;-5.646;2022-10-22T09:47:36;3.38;;;1.23;;
69703;SDS011;56967;43.538;-5.646;2022-10-22T09:53:04;6.68;;;2.67;;
69703;SDS011;56967;43.538;-5.646;2022-10-22T09:55:54;2.97;;;1.60;;
69703;SDS011;56967;43.538;-5.646;2022-10-22T09:58:21;3.33;;;1.38;;
69703;SDS011;56967;43.538;-5.646;2022-10-22T10:00:50;3.17;;;1.73;;
69703;SDS011;56967;43.538;-5.646;2022-10-22T10:03:22;3.90;;;1.90;;
69703;SDS011;56967;43.538;-5.646;2022-10-22T10:05:52;3.95;;;1.58;;
69703;SDS011;56967;43.538;-5.646;2022-10-22T10:08:19;4.28;;;1.30;;
69703;SDS011;56967;43.538;-5.646;2022-10-22T10:10:47;2.80;;;1.20;;
69703;SDS011;56967;43.538;-5.646;2022-10-22T10:13:42;4.32;;;1.50;;
69703;SDS011;56967;43.538;-5.646;2022-10-22T10:16:34;5.00;;;2.05;;
69703;SDS011;56967;43.538;-5.646;2022-10-22T10:22:04;4.22;;;1.73;;
69703;SDS011;56967;43.538;-5.646;2022-10-22T10:27:30;3.20;;;1.40;;
69703;SDS011;56967;43.538;-5.646;2022-10-22T10:30:21;7.30;;;3.00;;
69703;SDS011;56967;43.538;-5.646;2022-10-22T10:43:45;2.38;;;1.65;;
69703;SDS011;56967;43.538;-5.646;2022-10-22T10:49:27;2.47;;;1.38;;
69703;SDS011;56967;43.538;-5.646;2022-10-22T10:54:34;2.72;;;1.30;;
69703;SDS011;56967;43.538;-5.646;2022-10-22T11:00:09;2.40;;;1.55;;
69703;SDS011;56967;43.538;-5.646;2022-10-22T11:05:37;1.70;;;0.88;;
69703;SDS011;56967;43.538;-5.646;2022-10-22T11:10:37;2.60;;;1.30;;
69703;SDS011;56967;43.538;-5.646;2022-10-22T11:13:12;2.05;;;1.10;;
69703;SDS011;56967;43.538;-5.646;2022-10-22T11:15:46;4.82;;;0.95;;
69703;SDS011;56967;43.538;-5.646;2022-10-22T11:18:28;1.90;;;0.90;;
69703;SDS011;56967;43.538;-5.646;2022-10-22T11:26:45;1.27;;;0.80;;
69703;SDS011;56967;43.538;-5.646;2022-10-22T11:29:26;1.63;;;0.80;;
69703;SDS011;56967;43.538;-5.646;2022-10-22T11:31:54;0.98;;;0.70;;
69703;SDS011;56967;43.538;-5.646;2022-10-22T11:34:26;1.52;;;0.60;;
69703;SDS011;56967;43.538;-5.646;2022-10-22T11:36:59;1.83;;;0.77;;
69703;SDS011;56967;43.538;-5.646;2022-10-22T11:42:18;0.93;;;0.55;;
69703;SDS011;56967;43.538;-5.646;2022-10-22T11:45:04;2.75;;;0.70;;
69703;SDS011;56967;43.538;-5.646;2022-10-22T12:06:05;1.80;;;1.17;;
69703;SDS011;56967;43.538;-5.646;2022-10-22T12:11:20;2.30;;;0.50;;
69703;SDS011;56967;43.538;-5.646;2022-10-22T12:16:44;1.65;;;0.50;;
69703;SDS011;56967;43.538;-5.646;2022-10-22T12:19:22;0.57;;;0.47;;
69703;SDS011;56967;43.538;-5.646;2022-10-22T12:22:38;2.63;;;0.55;;
69703;SDS011;56967;43.538;-5.646;2022-10-22T12:24:46;0.73;;;0.60;;
69703;SDS011;56967;43.538;-5.646;2022-10-22T12:27:23;0.60;;;0.60;;
69703;SDS011;56967;43.538;-5.646;2022-10-22T12:29:58;1.58;;;0.82;;
69703;SDS011;56967;43.538;-5.646;2022-10-22T12:32:40;1.45;;;0.90;;
69703;SDS011;56967;43.538;-5.646;2022-10-22T12:35:07;2.10;;;1.10;;
69703;SDS011;56967;43.538;-5.646;2022-10-22T12:37:38;1.30;;;1.00;;
69703;SDS011;56967;43.538;-5.646;2022-10-22T12:42:56;3.38;;;1.50;;
69703;SDS011;56967;43.538;-5.646;2022-10-22T12:45:30;3.03;;;1.60;;
69703;SDS011;56967;43.538;-5.646;2022-10-22T12:47:59;1.80;;;1.50;;
69703;SDS011;56967;43.538;-5.646;2022-10-22T12:50:31;2.35;;;2.05;;
69703;SDS011;56967;43.538;-5.646;2022-10-22T12:53:03;2.42;;;1.60;;
69703;SDS011;56967;43.538;-5.646;2022-10-22T12:55:39;1.92;;;1.73;;
69703;SDS011;56967;43.538;-5.646;2022-10-22T12:58:06;3.22;;;1.45;;
69703;SDS011;56967;43.538;-5.646;2022-10-22T13:00:33;2.33;;;2.00;;
69703;SDS011;56967;43.538;-5.646;2022-10-22T13:03:01;3.78;;;1.80;;
69703;SDS011;56967;43.538;-5.646;2022-10-22T13:05:30;2.22;;;1.48;;
69703;SDS011;56967;43.538;-5.646;2022-10-22T13:08:09;1.35;;;1.10;;
69703;SDS011;56967;43.538;-5.646;2022-10-22T13:10:38;1.67;;;0.70;;
69703;SDS011;56967;43.538;-5.646;2022-10-22T13:13:05;0.47;;;0.40;;
69703;SDS011;56967;43.538;-5.646;2022-10-22T13:15:33;0.88;;;0.50;;
69703;SDS011;56967;43.538;-5.646;2022-10-22T13:20:28;0.77;;;0.50;;
69703;SDS011;56967;43.538;-5.646;2022-10-22T13:30:23;1.98;;;0.60;;
69703;SDS011;56967;43.538;-5.646;2022-10-22T13:32:52;0.90;;;0.70;;
69703;SDS011;56967;43.538;-5.646;2022-10-22T13:35:22;1.00;;;0.50;;
69703;SDS011;56967;43.538;-5.646;2022-10-22T13:37:50;1.42;;;0.80;;
69703;SDS011;56967;43.538;-5.646;2022-10-22T13:40:16;1.98;;;0.90;;
69703;SDS011;56967;43.538;-5.646;2022-10-22T13:42:42;2.20;;;0.88;;
69703;SDS011;56967;43.538;-5.646;2022-10-22T13:45:07;1.70;;;0.50;;
69703;SDS011;56967;43.538;-5.646;2022-10-22T13:47:33;3.40;;;1.50;;
69703;SDS011;56967;43.538;-5.646;2022-10-22T13:49:59;2.97;;;0.90;;
69703;SDS011;56967;43.538;-5.646;2022-10-22T13:52:28;1.70;;;1.13;;
69703;SDS011;56967;43.538;-5.646;2022-10-22T13:55:00;2.05;;;1.30;;
69703;SDS011;56967;43.538;-5.646;2022-10-22T13:57:26;3.08;;;1.40;;
69703;SDS011;56967;43.538;-5.646;2022-10-22T13:59:52;1.73;;;1.00;;
69703;SDS011;56967;43.538;-5.646;2022-10-22T14:02:17;1.88;;;0.70;;
69703;SDS011;56967;43.538;-5.646;2022-10-22T14:04:44;2.78;;;1.10;;
69703;SDS011;56967;43.538;-5.646;2022-10-22T14:07:14;1.73;;;1.30;;
69703;SDS011;56967;43.538;-5.646;2022-10-22T14:09:41;2.78;;;1.20;;
69703;SDS011;56967;43.538;-5.646;2022-10-22T14:12:10;1.88;;;0.98;;
69703;SDS011;56967;43.538;-5.646;2022-10-22T14:14:37;1.42;;;0.60;;
69703;SDS011;56967;43.538;-5.646;2022-10-22T14:17:03;2.15;;;0.70;;
69703;SDS011;56967;43.538;-5.646;2022-10-22T14:19:29;2.08;;;0.88;;
69703;SDS011;56967;43.538;-5.646;2022-10-22T14:21:55;1.55;;;1.17;;
69703;SDS011;56967;43.538;-5.646;2022-10-22T14:24:21;1.58;;;0.90;;
69703;SDS011;56967;43.538;-5.646;2022-10-22T14:26:47;1.58;;;0.90;;
69703;SDS011;56967;43.538;-5.646;2022-10-22T14:29:12;1.75;;;0.90;;
69703;SDS011;56967;43.538;-5.646;2022-10-22T14:31:38;1.17;;;0.60;;
69703;SDS011;56967;43.538;-5.646;2022-10-22T14:34:05;0.70;;;0.50;;
69703;SDS011;56967;43.538;-5.646;2022-10-22T14:36:30;0.52;;;0.45;;
69703;SDS011;56967;43.538;-5.646;2022-10-22T14:38:56;1.20;;;0.80;;
69703;SDS011;56967;43.538;-5.646;2022-10-22T14:41:22;0.77;;;0.50;;
69703;SDS011;56967;43.538;-5.646;2022-10-22T14:43:49;0.60;;;0.40;;
69703;SDS011;56967;43.538;-5.646;2022-10-22T14:46:16;0.40;;;0.30;;
69703;SDS011;56967;43.538;-5.646;2022-10-22T14:48:42;1.45;;;0.70;;
69703;SDS011;56967;43.538;-5.646;2022-10-22T14:51:12;0.55;;;0.40;;
69703;SDS011;56967;43.538;-5.646;2022-10-22T14:53:38;1.38;;;0.60;;
69703;SDS011;56967;43.538;-5.646;2022-10-22T14:56:04;0.35;;;0.35;;
69703;SDS011;56967;43.538;-5.646;2022-10-22T14:58:30;1.05;;;0.50;;
69703;SDS011;56967;43.538;-5.646;2022-10-22T15:00:55;1.83;;;0.60;;
69703;SDS011;56967;43.538;-5.646;2022-10-22T15:03:21;1.88;;;0.63;;
69703;SDS011;56967;43.538;-5.646;2022-10-22T15:05:49;1.02;;;0.60;;
69703;SDS011;56967;43.538;-5.646;2022-10-22T15:08:17;1.00;;;0.40;;
69703;SDS011;56967;43.538;-5.646;2022-10-22T15:10:43;0.35;;;0.30;;
69703;SDS011;56967;43.538;-5.646;2022-10-22T15:13:08;1.23;;;0.60;;
69703;SDS011;56967;43.538;-5.646;2022-10-22T15:15:34;0.68;;;0.60;;
69703;SDS011;56967;43.538;-5.646;2022-10-22T15:18:00;0.93;;;0.55;;
69703;SDS011;56967;43.538;-5.646;2022-10-22T15:20:25;0.55;;;0.45;;
69703;SDS011;56967;43.538;-5.646;2022-10-22T15:22:51;1.15;;;0.60;;
69703;SDS011;56967;43.538;-5.646;2022-10-22T15:25:17;0.98;;;0.70;;
69703;SDS011;56967;43.538;-5.646;2022-10-22T15:27:42;3.65;;;0.52;;
69703;SDS011;56967;43.538;-5.646;2022-10-22T15:30:09;0.80;;;0.40;;
69703;SDS011;56967;43.538;-5.646;2022-10-22T15:32:34;2.22;;;0.65;;
69703;SDS011;56967;43.538;-5.646;2022-10-22T15:35:00;0.50;;;0.40;;
69703;SDS011;56967;43.538;-5.646;2022-10-22T15:37:26;0.70;;;0.70;;
69703;SDS011;56967;43.538;-5.646;2022-10-22T15:39:51;1.40;;;0.90;;
69703;SDS011;56967;43.538;-5.646;2022-10-22T15:42:17;0.70;;;0.50;;
69703;SDS011;56967;43.538;-5.646;2022-10-22T15:44:43;1.20;;;0.55;;
69703;SDS011;56967;43.538;-5.646;2022-10-22T15:47:09;0.98;;;0.35;;
69703;SDS011;56967;43.538;-5.646;2022-10-22T15:49:35;0.85;;;0.30;;
69703;SDS011;56967;43.538;-5.646;2022-10-22T15:52:03;0.40;;;0.40;;
69703;SDS011;56967;43.538;-5.646;2022-10-22T15:54:30;1.10;;;0.50;;
69703;SDS011;56967;43.538;-5.646;2022-10-22T15:56:56;0.63;;;0.50;;
69703;SDS011;56967;43.538;-5.646;2022-10-22T15:59:22;1.27;;;0.40;;
69703;SDS011;56967;43.538;-5.646;2022-10-22T16:01:48;1.27;;;0.80;;
69703;SDS011;56967;43.538;-5.646;2022-10-22T16:04:15;1.33;;;0.65;;
69703;SDS011;56967;43.538;-5.646;2022-10-22T16:06:42;1.08;;;0.95;;
69703;SDS011;56967;43.538;-5.646;2022-10-22T16:09:10;0.80;;;0.70;;
69703;SDS011;56967;43.538;-5.646;2022-10-22T16:11:37;1.10;;;0.50;;
69703;SDS011;56967;43.538;-5.646;2022-10-22T16:14:03;0.80;;;0.50;;
69703;SDS011;56967;43.538;-5.646;2022-10-22T16:16:30;1.23;;;0.50;;
69703;SDS011;56967;43.538;-5.646;2022-10-22T16:18:57;1.80;;;0.65;;
69703;SDS011;56967;43.538;-5.646;2022-10-22T16:21:23;0.98;;;0.40;;
69703;SDS011;56967;43.538;-5.646;2022-10-22T16:23:49;0.43;;;0.43;;
69703;SDS011;56967;43.538;-5.646;2022-10-22T16:26:15;0.60;;;0.40;;
69703;SDS011;56967;43.538;-5.646;2022-10-22T16:28:42;1.55;;;0.50;;
69703;SDS011;56967;43.538;-5.646;2022-10-22T16:31:09;0.50;;;0.50;;
69703;SDS011;56967;43.538;-5.646;2022-10-22T16:33:36;1.75;;;0.73;;
69703;SDS011;56967;43.538;-5.646;2022-10-22T16:36:06;0.60;;;0.60;;